Time;durP1;ratioP1;P1;durP2;ratioP2;P2;SDS_P1;SDS_P2;PMS_P1;PMS_P2;Temp;Humidity;BMP_temperature;BMP_pressure;BME280_temperature;BME280_humidity;BME280_pressure;Samples;Min_cycle;Max_cycle;Signal;HPM_P1;HPM_P2
2023/05/14 00:01:21;;;;;;;6.23;5.63;;;;;;;;;;5091959;28;20187;-75
2023/05/14 00:03:46;;;;;;;6.33;4.93;;;;;;;;;;5090120;28;20206;-75
2023/05/14 00:06:12;;;;;;;6.00;5.50;;;;;;;;;;5090146;28;20188;-75
2023/05/14 00:08:37;;;;;;;5.07;4.23;;;;;;;;;;5091412;28;20193;-75
2023/05/14 00:11:02;;;;;;;6.57;5.87;;;;;;;;;;5090967;28;20192;-75
2023/05/14 00:13:27;;;;;;;5.93;5.07;;;;;;;;;;5090819;28;20244;-75
2023/05/14 00:15:53;;;;;;;5.13;4.63;;;;;;;;;;5091336;28;20169;-75
2023/05/14 00:18:18;;;;;;;5.70;5.20;;;;;;;;;;5092513;28;20179;-75
2023/05/14 00:20:43;;;;;;;5.27;4.77;;;;;;;;;;5090321;28;20179;-75
2023/05/14 00:23:08;;;;;;;5.20;4.70;;;;;;;;;;5087408;28;20189;-75
2023/05/14 00:25:33;;;;;;;4.80;4.07;;;;;;;;;;5085435;28;20180;-75
2023/05/14 00:27:59;;;;;;;5.00;4.50;;;;;;;;;;5092268;28;20177;-75
2023/05/14 00:30:24;;;;;;;6.47;4.63;;;;;;;;;;5090472;28;20274;-75
2023/05/14 00:32:49;;;;;;;5.00;4.60;;;;;;;;;;5091798;28;20199;-75
2023/05/14 00:35:15;;;;;;;4.70;4.30;;;;;;;;;;5090578;28;20243;-75
2023/05/14 00:37:40;;;;;;;5.23;4.73;;;;;;;;;;5090534;28;20215;-75
2023/05/14 00:40:07;;;;;;;4.90;4.50;;;;;;;;;;5089907;28;20226;-75
2023/05/14 00:42:32;;;;;;;5.80;5.30;;;;;;;;;;5090220;28;20171;-75
2023/05/14 00:44:57;;;;;;;5.63;5.13;;;;;;;;;;5085410;28;20176;-75
2023/05/14 00:47:22;;;;;;;6.20;5.60;;;;;;;;;;5090613;28;20176;-75
2023/05/14 00:49:48;;;;;;;5.70;5.27;;;;;;;;;;5090640;28;20187;-75
2023/05/14 00:52:14;;;;;;;6.27;5.73;;;;;;;;;;5091867;28;20260;-75
2023/05/14 00:54:39;;;;;;;5.80;5.20;;;;;;;;;;5089525;28;20262;-75
2023/05/14 00:57:05;;;;;;;6.20;5.60;;;;;;;;;;5090122;28;20207;-75
2023/05/14 00:59:30;;;;;;;5.47;4.97;;;;;;;;;;5083945;28;20180;-75
2023/05/14 01:01:55;;;;;;;5.50;5.00;;;;;;;;;;5089973;28;20175;-75
2023/05/14 01:04:21;;;;;;;5.70;5.20;;;;;;;;;;5090043;28;20214;-75
2023/05/14 01:07:07;;;;;;;6.13;5.63;;;;;;;;;;5091255;28;20233;-75
2023/05/14 01:09:49;;;;;;;5.47;4.97;;;;;;;;;;5090613;28;20183;-75
2023/05/14 01:12:24;;;;;;;5.30;4.80;;;;;;;;;;5089587;28;20173;-75
2023/05/14 01:15:00;;;;;;;5.10;4.60;;;;;;;;;;5087166;28;20175;-75
2023/05/14 01:17:27;;;;;;;5.20;4.70;;;;;;;;;;5087784;28;20207;-75
2023/05/14 01:19:52;;;;;;;5.20;4.70;;;;;;;;;;5089957;28;20175;-75
2023/05/14 01:22:17;;;;;;;5.07;4.60;;;;;;;;;;5089824;28;20180;-75
2023/05/14 01:24:43;;;;;;;5.63;5.13;;;;;;;;;;5089381;28;20191;-75
2023/05/14 01:27:23;;;;;;;5.90;5.30;;;;;;;;;;5089590;28;20175;-75
2023/05/14 01:29:51;;;;;;;5.70;5.20;;;;;;;;;;5089662;28;20207;-75
2023/05/14 01:32:17;;;;;;;5.67;5.17;;;;;;;;;;5086230;28;20191;-75
2023/05/14 01:34:43;;;;;;;6.40;5.80;;;;;;;;;;5087587;28;20270;-75
2023/05/14 01:37:10;;;;;;;5.93;5.43;;;;;;;;;;5082088;28;20303;-75
2023/05/14 01:39:36;;;;;;;6.60;5.90;;;;;;;;;;5089943;28;20172;-75
2023/05/14 01:42:02;;;;;;;6.43;5.83;;;;;;;;;;5089702;28;20177;-75
2023/05/14 01:44:28;;;;;;;7.63;5.57;;;;;;;;;;5088909;28;20195;-75
2023/05/14 01:46:53;;;;;;;6.23;5.67;;;;;;;;;;5089261;28;20192;-75
2023/05/14 01:49:18;;;;;;;6.37;5.80;;;;;;;;;;5087504;28;20211;-75
2023/05/14 01:51:44;;;;;;;7.43;6.13;;;;;;;;;;5089367;28;20274;-75
2023/05/14 01:54:09;;;;;;;6.77;6.17;;;;;;;;;;5089709;28;20176;-75
2023/05/14 01:56:34;;;;;;;6.30;5.70;;;;;;;;;;5083134;28;20234;-75
2023/05/14 01:58:59;;;;;;;7.27;6.57;;;;;;;;;;5088797;28;20286;-75
2023/05/14 02:01:25;;;;;;;7.00;6.30;;;;;;;;;;5090790;28;20234;-75
2023/05/14 02:03:50;;;;;;;6.80;6.07;;;;;;;;;;5088197;28;20199;-75
2023/05/14 02:06:15;;;;;;;7.77;6.97;;;;;;;;;;5072747;28;20190;-75
2023/05/14 02:08:40;;;;;;;5.93;5.33;;;;;;;;;;5086761;28;20175;-75
2023/05/14 02:11:06;;;;;;;6.77;6.17;;;;;;;;;;5089201;28;20230;-75
2023/05/14 02:13:31;;;;;;;5.90;5.40;;;;;;;;;;5089612;28;20187;-75
2023/05/14 02:15:56;;;;;;;6.50;5.70;;;;;;;;;;5089304;28;20176;-75
2023/05/14 02:18:21;;;;;;;6.23;5.63;;;;;;;;;;5089705;28;20214;-75
2023/05/14 02:20:46;;;;;;;6.67;6.07;;;;;;;;;;5088914;28;20181;-75
2023/05/14 02:23:12;;;;;;;6.23;5.63;;;;;;;;;;5087369;28;20176;-75
2023/05/14 02:25:37;;;;;;;6.13;5.53;;;;;;;;;;5086851;28;20269;-75
2023/05/14 02:28:02;;;;;;;7.10;5.97;;;;;;;;;;5089801;28;20230;-75
2023/05/14 02:30:28;;;;;;;6.53;5.83;;;;;;;;;;5089847;28;20180;-75
2023/05/14 02:32:54;;;;;;;5.90;5.40;;;;;;;;;;5089517;28;20175;-75
2023/05/14 02:35:19;;;;;;;6.37;5.77;;;;;;;;;;5090979;28;20227;-75
2023/05/14 02:37:44;;;;;;;6.73;5.80;;;;;;;;;;5087540;28;20204;-75
2023/05/14 02:40:10;;;;;;;6.50;5.90;;;;;;;;;;5087481;28;20195;-75
2023/05/14 02:42:35;;;;;;;8.10;7.30;;;;;;;;;;5087099;28;20179;-75
2023/05/14 02:45:00;;;;;;;10.07;6.37;;;;;;;;;;5088413;28;20190;-75
2023/05/14 02:47:25;;;;;;;6.63;6.03;;;;;;;;;;5088838;28;20206;-75
2023/05/14 02:49:50;;;;;;;7.57;6.87;;;;;;;;;;5089865;28;20243;-75
2023/05/14 02:52:16;;;;;;;7.97;7.27;;;;;;;;;;5089160;28;20280;-75
2023/05/14 02:54:41;;;;;;;7.33;6.63;;;;;;;;;;5089097;28;20179;-75
2023/05/14 02:57:07;;;;;;;7.63;6.93;;;;;;;;;;5086246;28;20246;-75
2023/05/14 02:59:32;;;;;;;9.07;8.10;;;;;;;;;;5093622;28;20180;-75
2023/05/14 03:01:57;;;;;;;8.13;7.43;;;;;;;;;;5093367;28;20183;-75
2023/05/14 03:04:22;;;;;;;8.07;7.23;;;;;;;;;;5091145;28;20258;-75
2023/05/14 03:06:47;;;;;;;8.87;7.97;;;;;;;;;;5091153;28;20275;-75
2023/05/14 03:09:13;;;;;;;9.27;8.37;;;;;;;;;;5089967;28;20274;-75
2023/05/14 03:11:38;;;;;;;9.33;8.43;;;;;;;;;;5091673;28;20183;-75
2023/05/14 03:14:03;;;;;;;9.23;8.33;;;;;;;;;;5088393;28;20178;-75
2023/05/14 03:16:28;;;;;;;9.17;8.27;;;;;;;;;;5090567;28;20214;-75
2023/05/14 03:18:54;;;;;;;7.97;7.17;;;;;;;;;;5092966;28;20318;-75
2023/05/14 03:21:19;;;;;;;8.17;7.43;;;;;;;;;;5093606;28;20272;-75
2023/05/14 03:23:44;;;;;;;7.73;6.93;;;;;;;;;;5091309;28;20176;-75
2023/05/14 03:26:09;;;;;;;8.17;7.47;;;;;;;;;;5093302;28;20171;-75
2023/05/14 03:28:35;;;;;;;8.37;7.57;;;;;;;;;;5092406;28;20190;-75
2023/05/14 03:31:00;;;;;;;9.67;8.70;;;;;;;;;;5089022;28;20178;-75
2023/05/14 03:33:25;;;;;;;9.60;7.70;;;;;;;;;;5089138;28;20206;-75
2023/05/14 03:35:50;;;;;;;8.67;7.77;;;;;;;;;;5089775;28;20239;-75
2023/05/14 03:38:16;;;;;;;8.97;8.07;;;;;;;;;;5091054;28;20255;-75
2023/05/14 03:40:41;;;;;;;8.63;7.80;;;;;;;;;;5093298;28;20189;-75
2023/05/14 03:43:06;;;;;;;8.73;7.83;;;;;;;;;;5090349;28;20169;-75
2023/05/14 03:45:32;;;;;;;8.77;7.93;;;;;;;;;;5092630;28;20191;-75
2023/05/14 03:47:57;;;;;;;9.13;7.70;;;;;;;;;;5088652;28;20191;-75
2023/05/14 03:50:24;;;;;;;8.07;7.27;;;;;;;;;;5086571;28;20281;-75
2023/05/14 03:52:51;;;;;;;8.07;7.10;;;;;;;;;;5091947;28;20190;-75
2023/05/14 03:55:16;;;;;;;7.50;6.80;;;;;;;;;;5087095;28;20214;-75
2023/05/14 03:57:41;;;;;;;7.67;6.70;;;;;;;;;;5090682;28;20244;-75
2023/05/14 04:00:07;;;;;;;7.70;6.90;;;;;;;;;;5091719;28;20177;-75
2023/05/14 04:02:32;;;;;;;8.00;7.20;;;;;;;;;;5089576;28;20188;-75
2023/05/14 04:04:57;;;;;;;9.50;6.13;;;;;;;;;;5089630;28;20202;-75
2023/05/14 04:07:22;;;;;;;7.00;6.20;;;;;;;;;;5090044;28;20213;-75
2023/05/14 04:09:48;;;;;;;7.63;6.37;;;;;;;;;;5085597;28;20183;-75
2023/05/14 04:12:13;;;;;;;6.57;5.97;;;;;;;;;;5092327;28;20223;-75
2023/05/14 04:14:38;;;;;;;6.07;5.47;;;;;;;;;;5089617;28;20174;-75
2023/05/14 04:17:03;;;;;;;7.87;5.97;;;;;;;;;;5092485;28;20226;-75
2023/05/14 04:19:29;;;;;;;7.43;6.63;;;;;;;;;;5090741;28;20265;-75
2023/05/14 04:21:54;;;;;;;7.33;6.53;;;;;;;;;;5090668;28;20214;-75
2023/05/14 04:24:19;;;;;;;8.50;7.03;;;;;;;;;;5089824;28;20175;-75
2023/05/14 04:26:44;;;;;;;8.50;7.60;;;;;;;;;;5091115;28;20185;-75
2023/05/14 04:29:09;;;;;;;9.07;7.53;;;;;;;;;;5090706;28;20175;-75
2023/05/14 04:31:35;;;;;;;9.67;7.43;;;;;;;;;;5087792;28;20277;-75
2023/05/14 04:34:00;;;;;;;8.07;6.97;;;;;;;;;;5089988;28;20278;-75
2023/05/14 04:36:25;;;;;;;8.37;7.53;;;;;;;;;;5083987;28;20234;-75
2023/05/14 04:38:50;;;;;;;8.17;7.37;;;;;;;;;;5090870;28;20232;-75
2023/05/14 04:41:15;;;;;;;9.90;8.80;;;;;;;;;;5087883;28;20183;-75
2023/05/14 04:43:41;;;;;;;9.63;8.63;;;;;;;;;;5090158;28;20175;-75
2023/05/14 04:46:06;;;;;;;9.73;7.90;;;;;;;;;;5090637;28;20177;-75
2023/05/14 04:48:31;;;;;;;9.17;8.30;;;;;;;;;;5089765;28;20182;-75
2023/05/14 04:50:56;;;;;;;8.50;7.70;;;;;;;;;;5087048;28;20178;-75
2023/05/14 04:53:22;;;;;;;9.27;8.37;;;;;;;;;;5090843;28;20166;-75
2023/05/14 04:55:47;;;;;;;9.17;8.27;;;;;;;;;;5085476;28;20170;-75
2023/05/14 04:58:12;;;;;;;9.23;8.03;;;;;;;;;;5083880;28;20291;-75
2023/05/14 05:00:38;;;;;;;10.97;9.43;;;;;;;;;;5091796;28;20171;-75
2023/05/14 05:03:04;;;;;;;10.27;9.23;;;;;;;;;;5089723;28;20204;-75
2023/05/14 05:05:29;;;;;;;11.07;9.83;;;;;;;;;;5090248;28;20179;-75
2023/05/14 05:07:54;;;;;;;9.60;8.17;;;;;;;;;;5089798;28;20266;-75
2023/05/14 05:10:20;;;;;;;10.37;9.03;;;;;;;;;;5089508;28;20215;-75
2023/05/14 05:12:45;;;;;;;12.87;10.80;;;;;;;;;;5091184;28;20187;-75
2023/05/14 05:15:10;;;;;;;12.20;10.50;;;;;;;;;;5089196;28;20175;-75
2023/05/14 05:17:36;;;;;;;10.60;9.20;;;;;;;;;;5088368;28;20202;-75
2023/05/14 05:20:01;;;;;;;10.83;8.80;;;;;;;;;;5090605;28;20168;-75
2023/05/14 05:22:26;;;;;;;12.43;8.93;;;;;;;;;;5090787;28;20179;-75
2023/05/14 05:24:51;;;;;;;11.40;9.70;;;;;;;;;;5087672;28;20247;-75
2023/05/14 05:27:16;;;;;;;11.60;9.53;;;;;;;;;;5088137;28;20183;-75
2023/05/14 05:29:42;;;;;;;11.60;9.53;;;;;;;;;;5089100;28;20186;-75
2023/05/14 05:32:08;;;;;;;9.73;8.73;;;;;;;;;;5083747;28;20174;-75
2023/05/14 05:34:33;;;;;;;9.80;8.80;;;;;;;;;;5089575;28;20243;-75
2023/05/14 05:36:59;;;;;;;9.30;8.27;;;;;;;;;;5089957;28;20280;-75
2023/05/14 05:39:25;;;;;;;9.90;8.73;;;;;;;;;;5089997;28;20179;-75
2023/05/14 05:41:50;;;;;;;10.27;9.17;;;;;;;;;;5086859;28;20266;-75
2023/05/14 05:44:15;;;;;;;10.53;8.77;;;;;;;;;;5088951;28;20179;-75
2023/05/14 05:46:40;;;;;;;9.30;8.03;;;;;;;;;;5090065;28;20175;-75
2023/05/14 05:49:06;;;;;;;10.77;8.47;;;;;;;;;;5085297;28;20182;-75
2023/05/14 05:51:32;;;;;;;10.90;9.47;;;;;;;;;;5090486;28;20171;-75
2023/05/14 05:53:57;;;;;;;11.87;9.80;;;;;;;;;;5089937;28;20182;-75
2023/05/14 05:56:22;;;;;;;11.10;9.90;;;;;;;;;;5088783;28;20198;-75
2023/05/14 05:58:47;;;;;;;10.53;9.40;;;;;;;;;;5089164;28;20177;-75
2023/05/14 06:01:12;;;;;;;10.67;9.33;;;;;;;;;;5089761;28;20181;-75
2023/05/14 06:03:38;;;;;;;10.20;8.57;;;;;;;;;;5089372;28;20191;-75
2023/05/14 06:06:03;;;;;;;10.47;9.20;;;;;;;;;;5088334;28;20241;-75
2023/05/14 06:08:28;;;;;;;10.47;9.37;;;;;;;;;;5092880;28;20178;-75
2023/05/14 06:10:54;;;;;;;13.87;9.70;;;;;;;;;;5088507;28;20188;-75
2023/05/14 06:13:19;;;;;;;13.27;9.83;;;;;;;;;;5089072;28;20168;-75
2023/05/14 06:15:44;;;;;;;13.63;9.63;;;;;;;;;;5089481;28;20213;-75
2023/05/14 06:18:09;;;;;;;9.03;8.03;;;;;;;;;;5087578;28;20183;-75
2023/05/14 06:20:34;;;;;;;9.67;8.67;;;;;;;;;;5089179;28;20190;-75
2023/05/14 06:23:00;;;;;;;13.57;10.63;;;;;;;;;;5088263;28;20184;-75
2023/05/14 06:25:25;;;;;;;9.23;8.30;;;;;;;;;;5089225;28;20265;-75
2023/05/14 06:27:50;;;;;;;10.90;9.80;;;;;;;;;;5089771;28;20266;-75
2023/05/14 06:30:15;;;;;;;11.00;9.20;;;;;;;;;;5090248;28;20183;-75
2023/05/14 06:32:41;;;;;;;11.27;9.70;;;;;;;;;;5092822;28;20171;-75
2023/05/14 06:35:06;;;;;;;11.10;9.37;;;;;;;;;;5090099;28;20232;-75
2023/05/14 06:37:31;;;;;;;10.20;9.17;;;;;;;;;;5088785;28;20279;-75
2023/05/14 06:39:56;;;;;;;11.23;8.67;;;;;;;;;;5092270;28;20173;-75
2023/05/14 06:42:22;;;;;;;8.73;7.90;;;;;;;;;;5092273;28;20183;-75
2023/05/14 06:44:47;;;;;;;11.73;8.87;;;;;;;;;;5091595;28;20180;-75
2023/05/14 06:47:12;;;;;;;11.57;9.10;;;;;;;;;;5091734;28;20185;-75
2023/05/14 06:49:37;;;;;;;10.20;8.70;;;;;;;;;;5093927;28;20215;-75
2023/05/14 06:52:03;;;;;;;11.40;8.80;;;;;;;;;;5092575;28;20232;-75
2023/05/14 06:54:28;;;;;;;10.57;9.47;;;;;;;;;;5093846;28;20248;-75
2023/05/14 06:56:54;;;;;;;10.70;9.60;;;;;;;;;;5088327;28;20201;-75
2023/05/14 06:59:19;;;;;;;11.27;9.37;;;;;;;;;;5093101;28;20176;-75
2023/05/14 07:01:44;;;;;;;10.33;8.70;;;;;;;;;;5090350;28;20167;-75
2023/05/14 07:04:09;;;;;;;10.00;8.90;;;;;;;;;;5093314;28;20200;-75
2023/05/14 07:06:35;;;;;;;10.30;9.20;;;;;;;;;;5093913;28;20183;-75
2023/05/14 07:09:00;;;;;;;9.83;8.83;;;;;;;;;;5096110;28;20213;-75
2023/05/14 07:11:25;;;;;;;9.60;7.83;;;;;;;;;;5086152;28;20188;-75
2023/05/14 07:13:51;;;;;;;9.87;8.83;;;;;;;;;;5089781;28;20184;-75
2023/05/14 07:16:16;;;;;;;10.53;9.43;;;;;;;;;;5093636;28;20242;-75
2023/05/14 07:18:41;;;;;;;10.57;9.47;;;;;;;;;;5089527;28;20180;-75
2023/05/14 07:21:06;;;;;;;10.83;9.13;;;;;;;;;;5091637;28;20254;-75
2023/05/14 07:23:32;;;;;;;10.87;8.87;;;;;;;;;;5086110;28;20176;-75
2023/05/14 07:25:57;;;;;;;12.40;9.60;;;;;;;;;;5092443;28;20175;-75
2023/05/14 07:28:22;;;;;;;10.63;8.73;;;;;;;;;;5090664;28;20183;-75
2023/05/14 07:30:48;;;;;;;8.97;8.07;;;;;;;;;;5092480;28;20184;-75
2023/05/14 07:33:13;;;;;;;9.47;8.57;;;;;;;;;;5085037;28;20184;-75
2023/05/14 07:35:38;;;;;;;9.57;8.63;;;;;;;;;;5088294;28;20256;-75
2023/05/14 07:38:04;;;;;;;10.00;8.90;;;;;;;;;;5091309;28;20204;-75
2023/05/14 07:40:30;;;;;;;8.93;8.03;;;;;;;;;;5092313;28;20177;-75
2023/05/14 07:42:55;;;;;;;10.30;9.30;;;;;;;;;;5091102;28;20184;-76
2023/05/14 07:45:20;;;;;;;9.63;8.40;;;;;;;;;;5091435;28;20176;-75
2023/05/14 07:47:45;;;;;;;10.67;8.60;;;;;;;;;;5090785;28;20190;-75
2023/05/14 07:50:11;;;;;;;12.47;9.67;;;;;;;;;;5093239;28;20232;-75
2023/05/14 07:52:36;;;;;;;11.20;8.40;;;;;;;;;;5090021;28;20180;-75
2023/05/14 07:55:02;;;;;;;8.43;7.63;;;;;;;;;;5094176;28;20177;-75
2023/05/14 07:57:27;;;;;;;9.37;8.40;;;;;;;;;;5093605;28;20231;-75
2023/05/14 07:59:52;;;;;;;10.73;9.73;;;;;;;;;;5091734;28;20195;-75
2023/05/14 08:02:18;;;;;;;12.83;8.30;;;;;;;;;;5091236;28;20234;-75
2023/05/14 08:04:43;;;;;;;10.07;9.00;;;;;;;;;;5087603;28;20169;-75
2023/05/14 08:07:08;;;;;;;8.97;8.07;;;;;;;;;;5092829;28;20174;-75
2023/05/14 08:09:34;;;;;;;9.90;8.10;;;;;;;;;;5091658;28;20244;-75
2023/05/14 08:11:59;;;;;;;9.20;8.30;;;;;;;;;;5091302;28;20181;-75
2023/05/14 08:14:25;;;;;;;10.17;9.03;;;;;;;;;;5090747;28;20189;-75
2023/05/14 08:16:50;;;;;;;8.57;7.40;;;;;;;;;;5090639;28;20278;-76
2023/05/14 08:19:15;;;;;;;8.03;7.23;;;;;;;;;;5090719;28;20261;-75
2023/05/14 08:21:40;;;;;;;7.53;6.83;;;;;;;;;;5086150;28;20177;-76
2023/05/14 08:24:06;;;;;;;9.20;8.30;;;;;;;;;;5091006;28;20177;-75
2023/05/14 08:26:31;;;;;;;9.57;7.50;;;;;;;;;;5090342;28;20189;-75
2023/05/14 08:28:56;;;;;;;8.60;7.77;;;;;;;;;;5091049;28;20184;-76
2023/05/14 08:31:21;;;;;;;14.60;7.87;;;;;;;;;;5090117;28;20182;-75
2023/05/14 08:33:47;;;;;;;9.33;8.43;;;;;;;;;;5090244;28;20190;-76
2023/05/14 08:36:12;;;;;;;8.77;7.87;;;;;;;;;;5086723;28;20281;-76
2023/05/14 08:38:37;;;;;;;7.67;6.73;;;;;;;;;;5085707;28;20184;-75
2023/05/14 08:41:04;;;;;;;7.97;7.17;;;;;;;;;;5090891;28;20171;-76
2023/05/14 08:43:49;;;;;;;7.40;6.70;;;;;;;;;;5089732;28;20179;-76
2023/05/14 08:46:16;;;;;;;7.00;6.40;;;;;;;;;;5087226;28;20192;-75
2023/05/14 08:48:41;;;;;;;6.83;6.23;;;;;;;;;;5090628;28;20174;-75
2023/05/14 08:51:07;;;;;;;7.37;6.67;;;;;;;;;;5090058;28;20177;-76
2023/05/14 08:53:33;;;;;;;6.70;6.10;;;;;;;;;;5089046;28;20174;-75
2023/05/14 08:56:00;;;;;;;7.27;6.57;;;;;;;;;;5087764;28;20172;-76
2023/05/14 08:58:26;;;;;;;6.50;5.90;;;;;;;;;;5092697;28;20289;-76
2023/05/14 09:00:52;;;;;;;6.70;6.10;;;;;;;;;;5089786;28;20219;-76
2023/05/14 09:03:18;;;;;;;7.33;6.63;;;;;;;;;;5090585;28;20283;-76
2023/05/14 09:05:44;;;;;;;6.30;5.73;;;;;;;;;;5090031;28;20295;-76
2023/05/14 09:08:09;;;;;;;7.50;6.80;;;;;;;;;;5090602;28;20220;-76
2023/05/14 09:10:34;;;;;;;6.87;6.23;;;;;;;;;;5089886;28;20263;-76
2023/05/14 09:12:59;;;;;;;7.57;6.87;;;;;;;;;;5085732;28;20183;-76
2023/05/14 09:15:26;;;;;;;6.40;5.80;;;;;;;;;;5089841;28;20215;-76
2023/05/14 09:17:52;;;;;;;7.07;6.37;;;;;;;;;;5105400;28;20202;-76
2023/05/14 09:20:17;;;;;;;7.37;6.50;;;;;;;;;;5090252;28;20176;-76
2023/05/14 09:22:42;;;;;;;7.80;7.00;;;;;;;;;;5089102;28;20188;-76
2023/05/14 09:25:10;;;;;;;7.47;6.77;;;;;;;;;;5090532;28;20184;-76
2023/05/14 09:27:36;;;;;;;7.67;6.87;;;;;;;;;;5088288;28;20181;-76
2023/05/14 09:30:05;;;;;;;8.70;7.87;;;;;;;;;;5083298;28;20181;-76
2023/05/14 09:32:42;;;;;;;7.97;7.20;;;;;;;;;;5086019;28;20211;-76
2023/05/14 09:35:19;;;;;;;8.40;6.13;;;;;;;;;;5086837;28;20227;-76
2023/05/14 09:37:51;;;;;;;7.03;6.33;;;;;;;;;;5086837;28;20250;-76
2023/05/14 09:40:17;;;;;;;7.73;7.03;;;;;;;;;;5082103;28;20176;-76
2023/05/14 09:42:43;;;;;;;6.63;5.97;;;;;;;;;;5089646;28;20193;-76
2023/05/14 09:45:09;;;;;;;7.37;6.67;;;;;;;;;;5085196;28;20312;-76
2023/05/14 09:47:34;;;;;;;6.57;5.97;;;;;;;;;;5086801;28;20182;-76
2023/05/14 09:50:00;;;;;;;8.03;7.23;;;;;;;;;;5089934;28;20212;-76
2023/05/14 09:52:25;;;;;;;8.17;6.60;;;;;;;;;;5090181;28;20187;-76
2023/05/14 09:54:53;;;;;;;6.87;6.27;;;;;;;;;;5087326;28;20187;-76
2023/05/14 09:57:18;;;;;;;6.60;6.00;;;;;;;;;;5086031;28;20209;-76
2023/05/14 09:59:44;;;;;;;6.77;6.27;;;;;;;;;;5089421;28;20238;-76
2023/05/14 10:02:17;;;;;;;6.10;5.47;;;;;;;;;;5085787;28;20208;-76
2023/05/14 10:04:43;;;;;;;6.30;5.70;;;;;;;;;;5089691;28;20180;-76
2023/05/14 10:07:08;;;;;;;6.70;6.07;;;;;;;;;;5093914;28;20180;-76
2023/05/14 10:09:36;;;;;;;6.07;5.47;;;;;;;;;;5092458;28;20190;-76
2023/05/14 10:12:01;;;;;;;6.63;6.00;;;;;;;;;;5090153;28;20188;-76
2023/05/14 10:14:37;;;;;;;6.77;6.17;;;;;;;;;;5093582;28;20184;-76
2023/05/14 10:17:04;;;;;;;6.73;6.07;;;;;;;;;;5080661;28;20221;-76
2023/05/14 10:19:31;;;;;;;6.67;6.07;;;;;;;;;;5089075;28;20185;-76
2023/05/14 10:22:00;;;;;;;6.80;6.10;;;;;;;;;;5075987;28;20256;-76
2023/05/14 10:24:25;;;;;;;5.40;4.90;;;;;;;;;;5092072;28;20188;-76
2023/05/14 10:26:52;;;;;;;6.60;6.00;;;;;;;;;;5088365;28;20173;-76
2023/05/14 10:29:17;;;;;;;5.70;5.20;;;;;;;;;;5094874;28;20198;-76
2023/05/14 10:31:52;;;;;;;5.57;5.07;;;;;;;;;;5093222;28;20271;-76
2023/05/14 10:34:42;;;;;;;5.97;5.47;;;;;;;;;;5094201;28;20168;-76
2023/05/14 10:37:17;;;;;;;6.37;5.77;;;;;;;;;;5073592;28;20247;-76
2023/05/14 10:39:46;;;;;;;7.33;6.63;;;;;;;;;;5090679;28;20172;-76
2023/05/14 10:42:12;;;;;;;9.33;7.43;;;;;;;;;;5093987;28;20243;-76
2023/05/14 10:44:41;;;;;;;6.10;5.50;;;;;;;;;;5090518;28;20181;-76
2023/05/14 10:47:06;;;;;;;6.00;5.50;;;;;;;;;;5085901;28;20191;-76
2023/05/14 10:49:32;;;;;;;6.60;5.90;;;;;;;;;;5093835;28;20177;-76
2023/05/14 10:51:58;;;;;;;6.57;6.07;;;;;;;;;;5093260;28;20173;-76
2023/05/14 10:54:23;;;;;;;7.23;6.53;;;;;;;;;;5087879;28;20173;-76
2023/05/14 10:56:48;;;;;;;6.80;6.20;;;;;;;;;;5087464;28;20193;-76
2023/05/14 10:59:15;;;;;;;7.07;6.37;;;;;;;;;;5090677;28;20253;-76
2023/05/14 11:01:41;;;;;;;5.80;5.23;;;;;;;;;;5092507;28;20183;-77
2023/05/14 11:04:06;;;;;;;5.90;4.83;;;;;;;;;;5090128;28;20238;-75
2023/05/14 11:06:31;;;;;;;5.50;5.00;;;;;;;;;;5093077;28;20175;-76
2023/05/14 11:08:59;;;;;;;5.90;5.30;;;;;;;;;;5091531;28;20181;-76
2023/05/14 11:11:25;;;;;;;5.20;4.80;;;;;;;;;;5091685;28;20181;-76
2023/05/14 11:13:51;;;;;;;5.33;4.83;;;;;;;;;;5093497;28;20230;-76
2023/05/14 11:16:17;;;;;;;5.87;5.37;;;;;;;;;;5098967;28;20270;-76
2023/05/14 11:18:42;;;;;;;6.40;5.80;;;;;;;;;;5090019;28;20198;-76
2023/05/14 11:21:08;;;;;;;8.00;5.47;;;;;;;;;;5092633;28;20197;-76
2023/05/14 11:23:33;;;;;;;5.60;5.10;;;;;;;;;;5092613;28;20180;-76
2023/05/14 11:25:58;;;;;;;5.53;5.03;;;;;;;;;;5091982;28;20166;-76
2023/05/14 11:28:26;;;;;;;6.03;5.20;;;;;;;;;;5083872;28;20219;-76
2023/05/14 11:30:52;;;;;;;5.13;4.73;;;;;;;;;;5092389;28;20276;-76
2023/05/14 11:33:18;;;;;;;4.47;4.07;;;;;;;;;;5093940;28;20187;-76
2023/05/14 11:35:44;;;;;;;5.27;4.77;;;;;;;;;;5088270;28;20257;-76
2023/05/14 11:38:16;;;;;;;4.13;3.77;;;;;;;;;;5092999;28;20221;-76
2023/05/14 11:40:42;;;;;;;5.87;5.27;;;;;;;;;;5091653;28;20183;-76
2023/05/14 11:43:07;;;;;;;5.80;5.30;;;;;;;;;;5091097;28;20169;-77
2023/05/14 11:45:33;;;;;;;5.57;5.07;;;;;;;;;;5089599;28;20219;-76
2023/05/14 11:47:58;;;;;;;6.77;5.90;;;;;;;;;;5092163;28;20183;-76
2023/05/14 11:50:23;;;;;;;5.90;5.23;;;;;;;;;;5089780;28;20192;-76
2023/05/14 11:52:49;;;;;;;6.10;5.33;;;;;;;;;;5091380;28;20191;-76
2023/05/14 11:55:15;;;;;;;6.27;5.77;;;;;;;;;;5087090;28;20200;-76
2023/05/14 11:57:40;;;;;;;6.03;5.40;;;;;;;;;;5090599;28;20246;-76
2023/05/14 12:00:20;;;;;;;6.80;6.20;;;;;;;;;;5092369;28;20191;-76
2023/05/14 12:02:46;;;;;;;5.60;5.10;;;;;;;;;;5087397;28;20197;-76
2023/05/14 12:05:11;;;;;;;6.17;5.57;;;;;;;;;;5089357;28;20256;-76
2023/05/14 12:07:38;;;;;;;5.90;5.40;;;;;;;;;;5089969;28;20325;-76
2023/05/14 12:10:03;;;;;;;6.57;5.30;;;;;;;;;;5092026;28;20209;-77
2023/05/14 12:12:33;;;;;;;6.07;5.53;;;;;;;;;;5090993;28;20210;-76
2023/05/14 12:14:58;;;;;;;6.43;5.93;;;;;;;;;;5092473;28;20175;-76
2023/05/14 12:17:23;;;;;;;6.23;5.70;;;;;;;;;;5091468;28;20218;-77
2023/05/14 12:19:49;;;;;;;6.50;5.90;;;;;;;;;;5089941;28;20172;-77
2023/05/14 12:22:17;;;;;;;6.80;6.20;;;;;;;;;;5091691;28;20179;-76
2023/05/14 12:24:43;;;;;;;6.83;6.23;;;;;;;;;;5090891;28;20171;-77
2023/05/14 12:27:09;;;;;;;6.80;6.20;;;;;;;;;;5087927;28;20184;-76
2023/05/14 12:29:35;;;;;;;6.50;5.90;;;;;;;;;;5098737;28;20216;-76
2023/05/14 12:32:03;;;;;;;6.00;5.50;;;;;;;;;;5094172;28;20184;-77
2023/05/14 12:34:28;;;;;;;6.57;5.97;;;;;;;;;;5091056;28;20185;-77
2023/05/14 12:36:53;;;;;;;6.90;5.60;;;;;;;;;;5089346;28;20233;-76
2023/05/14 12:39:19;;;;;;;5.33;4.73;;;;;;;;;;5090133;28;20206;-76
2023/05/14 12:41:45;;;;;;;5.47;4.47;;;;;;;;;;5087781;28;20181;-76
2023/05/14 12:44:10;;;;;;;4.93;4.53;;;;;;;;;;5090479;28;20179;-76
2023/05/14 12:46:35;;;;;;;4.97;4.53;;;;;;;;;;5092388;28;20269;-77
2023/05/14 12:49:00;;;;;;;4.67;4.20;;;;;;;;;;5090759;28;20179;-77
2023/05/14 12:51:26;;;;;;;4.20;3.80;;;;;;;;;;5090100;28;20182;-77
2023/05/14 12:53:53;;;;;;;4.90;4.20;;;;;;;;;;5089959;28;20179;-76
2023/05/14 12:56:18;;;;;;;4.90;4.50;;;;;;;;;;5089078;28;20183;-76
2023/05/14 12:58:45;;;;;;;5.30;4.80;;;;;;;;;;5088960;28;20236;-77
2023/05/14 13:01:10;;;;;;;3.27;3.03;;;;;;;;;;5088442;28;20172;-76
2023/05/14 13:03:35;;;;;;;4.37;3.97;;;;;;;;;;5085034;28;20203;-76
2023/05/14 13:06:01;;;;;;;4.40;3.97;;;;;;;;;;5089339;28;20202;-77
2023/05/14 13:08:26;;;;;;;4.47;4.07;;;;;;;;;;5091023;28;20179;-77
2023/05/14 13:10:52;;;;;;;4.27;3.87;;;;;;;;;;5088810;28;20260;-77
2023/05/14 13:13:17;;;;;;;4.17;3.87;;;;;;;;;;5090475;28;20280;-77
2023/05/14 13:15:45;;;;;;;6.20;5.20;;;;;;;;;;5086974;28;20203;-77
2023/05/14 13:18:10;;;;;;;4.70;4.30;;;;;;;;;;5089070;28;20223;-77
2023/05/14 13:20:36;;;;;;;4.50;4.10;;;;;;;;;;5090757;28;20229;-77
2023/05/14 13:23:01;;;;;;;5.13;4.63;;;;;;;;;;5089859;28;20207;-78
2023/05/14 13:25:26;;;;;;;4.67;4.23;;;;;;;;;;5090331;28;20245;-78
2023/05/14 13:27:51;;;;;;;4.87;4.47;;;;;;;;;;5088818;28;20184;-78
2023/05/14 13:30:17;;;;;;;5.73;5.13;;;;;;;;;;5090149;28;20173;-77
2023/05/14 13:32:43;;;;;;;5.27;4.77;;;;;;;;;;5088712;28;20210;-77
2023/05/14 13:35:08;;;;;;;5.83;5.33;;;;;;;;;;5087627;28;20219;-78
2023/05/14 13:37:33;;;;;;;5.60;5.10;;;;;;;;;;5085187;28;20186;-78
2023/05/14 13:39:58;;;;;;;6.33;5.80;;;;;;;;;;5089558;28;20197;-78
2023/05/14 13:42:24;;;;;;;5.93;5.43;;;;;;;;;;5089344;28;20228;-77
2023/05/14 13:44:49;;;;;;;6.70;6.10;;;;;;;;;;5083352;28;20172;-77
2023/05/14 13:47:15;;;;;;;5.63;5.13;;;;;;;;;;5088364;28;20180;-77
2023/05/14 13:49:40;;;;;;;6.03;5.47;;;;;;;;;;5089738;28;20246;-77
2023/05/14 13:52:05;;;;;;;6.70;6.10;;;;;;;;;;5086113;28;20191;-77
2023/05/14 13:54:30;;;;;;;5.90;5.43;;;;;;;;;;5098035;28;20250;-77
2023/05/14 13:56:56;;;;;;;7.60;6.30;;;;;;;;;;5084625;28;20229;-77
2023/05/14 13:59:22;;;;;;;6.47;5.87;;;;;;;;;;5086700;28;20170;-77
2023/05/14 14:01:48;;;;;;;5.77;5.27;;;;;;;;;;5087479;28;20180;-77
2023/05/14 14:04:15;;;;;;;6.00;5.50;;;;;;;;;;5087253;28;20203;-77
2023/05/14 14:06:40;;;;;;;6.53;5.90;;;;;;;;;;5089916;28;20189;-77
2023/05/14 14:09:05;;;;;;;5.90;5.30;;;;;;;;;;5088135;28;20185;-77
2023/05/14 14:11:31;;;;;;;6.53;5.80;;;;;;;;;;5088044;28;20175;-77
2023/05/14 14:13:56;;;;;;;5.73;5.23;;;;;;;;;;5089512;28;20179;-77
2023/05/14 14:16:21;;;;;;;5.83;5.33;;;;;;;;;;5088074;28;20179;-77
2023/05/14 14:18:46;;;;;;;5.60;5.10;;;;;;;;;;5087311;28;20189;-77
2023/05/14 14:21:12;;;;;;;6.30;5.80;;;;;;;;;;5089791;28;20167;-76
2023/05/14 14:23:37;;;;;;;6.70;6.03;;;;;;;;;;5087458;28;20374;-77
2023/05/14 14:26:02;;;;;;;6.53;5.93;;;;;;;;;;5086390;28;20182;-77
2023/05/14 14:28:28;;;;;;;7.10;6.40;;;;;;;;;;5089166;28;20194;-77
2023/05/14 14:30:53;;;;;;;5.57;5.07;;;;;;;;;;5089165;28;20177;-77
2023/05/14 14:33:18;;;;;;;6.70;6.10;;;;;;;;;;5086139;28;20188;-77